Time;durP1;ratioP1;P1;durP2;ratioP2;P2;SDS_P1;SDS_P2;PMS_P1;PMS_P2;Temp;Humidity;BMP_temperature;BMP_pressure;BME280_temperature;BME280_humidity;BME280_pressure;Samples;Min_cycle;Max_cycle;Signal;HPM_P1;HPM_P2
2022/04/20 00:00:43;;;;;;;5.83;5.17;;;5.00;99.90;;;;;;5070976;28;20231;-57
2022/04/20 00:03:09;;;;;;;7.20;5.70;;;4.90;99.90;;;;;;5070792;28;20245;-52
2022/04/20 00:05:35;;;;;;;6.60;5.20;;;4.80;99.90;;;;;;5070854;28;20207;-55
2022/04/20 00:08:01;;;;;;;6.17;5.57;;;4.70;99.90;;;;;;5071308;28;20296;-56
2022/04/20 00:10:28;;;;;;;7.50;6.20;;;4.70;99.90;;;;;;5071075;28;20163;-55
2022/04/20 00:12:53;;;;;;;7.87;6.17;;;4.70;99.90;;;;;;5074423;28;20177;-57
2022/04/20 00:15:19;;;;;;;6.93;6.20;;;4.70;99.90;;;;;;5074626;28;20191;-56
2022/04/20 00:17:44;;;;;;;7.77;6.90;;;4.70;99.90;;;;;;5074593;28;20167;-51
2022/04/20 00:20:10;;;;;;;7.73;6.50;;;4.70;99.90;;;;;;5074583;28;20162;-55
2022/04/20 00:22:35;;;;;;;6.40;5.73;;;4.70;99.90;;;;;;5056460;28;20248;-52
2022/04/20 00:27:35;;;;;;;6.60;5.70;;;4.60;99.90;;;;;;5012882;28;20220;-54
2022/04/20 00:30:02;;;;;;;7.37;5.67;;;4.60;99.90;;;;;;5014885;28;20176;-53
2022/04/20 00:32:29;;;;;;;5.97;5.17;;;4.50;99.90;;;;;;5014202;28;20161;-55
2022/04/20 00:34:55;;;;;;;6.40;5.63;;;4.50;99.90;;;;;;5014616;28;20175;-55
2022/04/20 00:37:21;;;;;;;6.53;5.93;;;4.60;99.90;;;;;;5014404;28;20548;-50
2022/04/20 00:39:46;;;;;;;6.93;5.97;;;4.60;99.90;;;;;;5014521;28;20173;-58
2022/04/20 00:42:12;;;;;;;6.83;6.17;;;4.60;99.90;;;;;;5014585;28;20191;-54
2022/04/20 00:44:39;;;;;;;7.00;6.23;;;4.70;99.90;;;;;;5014020;28;20192;-58
2022/04/20 00:47:06;;;;;;;7.60;5.70;;;4.70;99.90;;;;;;5014294;28;20180;-54
2022/04/20 00:49:34;;;;;;;5.90;5.30;;;4.40;99.90;;;;;;5014175;28;20176;-55
2022/04/20 00:52:02;;;;;;;6.90;5.77;;;4.20;99.90;;;;;;5014310;28;20234;-55
2022/04/20 00:54:27;;;;;;;6.50;5.70;;;4.10;99.90;;;;;;5013803;28;20168;-52
2022/04/20 00:56:53;;;;;;;9.03;6.17;;;4.20;99.90;;;;;;5014197;28;20219;-53
2022/04/20 00:59:22;;;;;;;9.23;6.97;;;4.20;99.90;;;;;;5014114;28;20167;-55
2022/04/20 01:01:47;;;;;;;7.63;6.73;;;4.20;99.90;;;;;;5014154;28;20184;-55
2022/04/20 01:04:13;;;;;;;9.03;6.77;;;4.20;99.90;;;;;;5013547;28;20172;-53
2022/04/20 01:06:39;;;;;;;8.13;6.77;;;4.20;99.90;;;;;;5013559;28;20201;-57
2022/04/20 01:09:05;;;;;;;8.23;7.00;;;4.20;99.90;;;;;;5013392;28;20499;-57
2022/04/20 01:11:30;;;;;;;7.97;6.50;;;4.20;99.90;;;;;;5013802;28;20687;-52
2022/04/20 01:13:56;;;;;;;7.50;6.80;;;4.30;99.90;;;;;;5013651;28;20175;-52
2022/04/20 01:16:22;;;;;;;8.00;7.20;;;4.20;99.90;;;;;;5013744;28;20222;-54
2022/04/20 01:18:51;;;;;;;8.07;7.17;;;4.30;99.90;;;;;;4994671;28;20697;-54
2022/04/20 01:21:16;;;;;;;7.80;7.00;;;4.30;99.90;;;;;;5013308;28;20173;-53
2022/04/20 01:23:42;;;;;;;8.33;7.47;;;4.30;99.90;;;;;;5010937;28;20518;-55
2022/04/20 01:26:09;;;;;;;8.33;7.37;;;4.30;99.90;;;;;;5012797;28;20208;-54
2022/04/20 01:28:38;;;;;;;8.00;7.10;;;4.30;99.90;;;;;;5013496;28;20173;-57
2022/04/20 01:31:05;;;;;;;8.70;6.20;;;4.30;99.90;;;;;;5012979;28;20165;-52
2022/04/20 01:33:30;;;;;;;7.50;6.70;;;4.30;99.90;;;;;;5013120;28;20226;-55
2022/04/20 01:35:56;;;;;;;7.40;6.53;;;4.20;99.90;;;;;;5013493;28;20587;-53
2022/04/20 01:38:22;;;;;;;7.30;6.17;;;4.20;99.90;;;;;;5013457;28;20252;-53
2022/04/20 01:40:48;;;;;;;7.60;6.80;;;4.20;99.90;;;;;;5013373;28;20168;-52
2022/04/20 01:43:13;;;;;;;7.37;6.23;;;4.10;99.90;;;;;;5012373;28;20660;-57
2022/04/20 01:45:39;;;;;;;7.37;6.47;;;4.10;99.90;;;;;;5013075;28;20201;-55
2022/04/20 01:48:06;;;;;;;7.13;6.23;;;4.10;99.90;;;;;;5013104;28;20168;-51
2022/04/20 01:50:31;;;;;;;7.37;6.67;;;4.10;99.90;;;;;;5013239;28;20242;-51
2022/04/20 01:52:57;;;;;;;7.33;6.53;;;4.10;99.90;;;;;;5012811;28;20199;-50
2022/04/20 01:55:22;;;;;;;7.00;6.30;;;4.00;99.90;;;;;;5013118;28;20188;-51
2022/04/20 01:57:48;;;;;;;6.70;6.07;;;4.00;99.90;;;;;;5012990;28;20168;-54
2022/04/20 02:00:16;;;;;;;7.83;6.63;;;4.00;99.90;;;;;;5013066;28;20172;-52
2022/04/20 02:02:42;;;;;;;6.60;6.00;;;4.00;99.90;;;;;;5012558;28;20165;-53
2022/04/20 02:05:10;;;;;;;6.10;5.50;;;4.00;99.90;;;;;;5012614;28;20554;-50
2022/04/20 02:07:36;;;;;;;6.20;5.43;;;4.00;99.90;;;;;;5012968;28;20569;-50
2022/04/20 02:10:02;;;;;;;6.40;5.70;;;4.00;99.90;;;;;;5012745;28;20165;-54
2022/04/20 02:12:28;;;;;;;7.00;5.67;;;4.00;99.90;;;;;;5012516;28;20168;-53
2022/04/20 02:14:54;;;;;;;5.93;5.17;;;4.00;99.90;;;;;;5012720;28;20412;-53
2022/04/20 02:17:19;;;;;;;5.77;5.20;;;4.00;99.90;;;;;;5012638;28;20196;-54
2022/04/20 02:19:45;;;;;;;5.87;5.27;;;3.90;99.90;;;;;;5011785;28;20234;-58
2022/04/20 02:22:11;;;;;;;6.37;5.57;;;3.90;99.90;;;;;;5012641;28;20179;-56
2022/04/20 02:24:37;;;;;;;6.27;5.63;;;3.90;99.90;;;;;;5012411;28;20169;-55
2022/04/20 02:27:02;;;;;;;5.73;5.23;;;3.90;99.90;;;;;;5012377;28;20210;-57
2022/04/20 02:29:28;;;;;;;5.80;5.20;;;3.90;99.90;;;;;;5012561;28;20255;-59
2022/04/20 02:31:54;;;;;;;6.30;5.70;;;3.80;99.90;;;;;;5012187;28;20251;-57
2022/04/20 02:34:19;;;;;;;7.40;5.40;;;3.80;99.90;;;;;;5012036;28;20238;-51
2022/04/20 02:36:45;;;;;;;5.57;5.07;;;3.90;99.90;;;;;;5012053;28;20194;-57
2022/04/20 02:39:11;;;;;;;6.40;5.70;;;3.80;99.90;;;;;;5012472;28;20553;-57
2022/04/20 02:41:37;;;;;;;7.27;6.30;;;3.80;99.90;;;;;;5012279;28;20173;-53
2022/04/20 02:44:04;;;;;;;6.60;6.00;;;3.80;99.90;;;;;;5012148;28;20173;-55
2022/04/20 02:46:30;;;;;;;5.73;5.23;;;3.80;99.90;;;;;;5012124;28;20494;-56
2022/04/20 02:48:55;;;;;;;6.17;5.50;;;3.70;99.90;;;;;;5012252;28;20462;-55
2022/04/20 02:51:21;;;;;;;5.90;5.30;;;3.70;99.90;;;;;;5012382;28;20175;-55
2022/04/20 02:53:46;;;;;;;5.93;5.30;;;3.70;99.90;;;;;;5011181;28;20622;-56
2022/04/20 02:56:12;;;;;;;5.67;5.10;;;3.70;99.90;;;;;;5012190;28;20195;-53
2022/04/20 02:58:38;;;;;;;5.37;4.87;;;3.70;99.90;;;;;;5012172;28;20646;-58
2022/04/20 03:01:03;;;;;;;5.90;5.17;;;3.70;99.90;;;;;;5012204;28;20273;-55
2022/04/20 03:03:29;;;;;;;5.20;4.70;;;3.70;99.90;;;;;;5011601;28;20164;-55
2022/04/20 03:05:54;;;;;;;5.97;5.00;;;3.70;99.90;;;;;;5012134;28;20711;-53
2022/04/20 03:08:22;;;;;;;5.40;4.90;;;3.60;99.90;;;;;;5011985;28;20172;-57
2022/04/20 03:10:48;;;;;;;5.43;4.93;;;3.60;99.90;;;;;;5012049;28;20238;-53
2022/04/20 03:13:13;;;;;;;5.33;4.83;;;3.60;99.90;;;;;;5011729;28;20451;-51
2022/04/20 03:15:39;;;;;;;5.63;5.13;;;3.60;99.90;;;;;;5011734;28;20192;-58
2022/04/20 03:18:04;;;;;;;5.60;5.00;;;3.60;99.90;;;;;;5011933;28;20253;-56
2022/04/20 03:20:31;;;;;;;6.17;5.03;;;3.50;99.90;;;;;;4993701;28;20172;-55
2022/04/20 03:22:56;;;;;;;7.13;5.10;;;3.60;99.90;;;;;;5011640;28;20565;-53
2022/04/20 03:25:22;;;;;;;5.53;5.00;;;3.60;99.90;;;;;;5011594;28;20538;-56
2022/04/20 03:27:47;;;;;;;5.93;5.27;;;3.60;99.90;;;;;;5012009;28;20773;-56
2022/04/20 03:30:14;;;;;;;5.73;5.17;;;3.60;99.90;;;;;;5011678;28;20176;-53
2022/04/20 03:32:40;;;;;;;6.17;5.23;;;3.50;99.90;;;;;;5011522;28;20161;-55
2022/04/20 03:35:06;;;;;;;5.67;4.93;;;3.50;99.90;;;;;;5011910;28;20820;-57
2022/04/20 03:37:32;;;;;;;4.97;4.47;;;3.50;99.90;;;;;;5011802;28;20761;-56
2022/04/20 03:39:59;;;;;;;6.37;5.33;;;3.50;99.90;;;;;;5011819;28;20412;-56
2022/04/20 03:42:25;;;;;;;5.67;5.13;;;3.40;99.90;;;;;;5011321;28;20189;-55
2022/04/20 03:44:51;;;;;;;5.60;5.00;;;3.30;99.90;;;;;;5011700;28;20462;-58
2022/04/20 03:47:16;;;;;;;5.77;5.10;;;3.30;99.90;;;;;;5014463;28;20423;-51
2022/04/20 03:49:42;;;;;;;6.17;5.17;;;3.30;99.90;;;;;;5015578;28;20165;-56
2022/04/20 03:52:08;;;;;;;6.07;4.73;;;3.30;99.90;;;;;;5015304;28;20558;-59
2022/04/20 03:54:35;;;;;;;5.30;4.80;;;3.30;99.90;;;;;;5015386;28;20180;-56
2022/04/20 03:57:04;;;;;;;5.33;4.83;;;3.30;99.90;;;;;;5014513;28;20246;-57
2022/04/20 03:59:33;;;;;;;5.53;5.03;;;3.30;99.90;;;;;;5015327;28;20400;-55
2022/04/20 04:02:02;;;;;;;5.87;5.20;;;3.30;99.90;;;;;;5015098;28;20435;-55
2022/04/20 04:04:27;;;;;;;5.93;5.33;;;3.20;99.90;;;;;;5014784;28;20764;-57
2022/04/20 04:06:53;;;;;;;7.03;5.37;;;3.20;99.90;;;;;;5015015;28;20192;-54
2022/04/20 04:09:19;;;;;;;5.63;4.97;;;3.20;99.90;;;;;;5014241;28;20638;-58
2022/04/20 04:11:45;;;;;;;5.77;5.20;;;3.20;99.90;;;;;;5015133;28;20518;-57
2022/04/20 04:14:10;;;;;;;7.00;5.30;;;3.30;99.90;;;;;;5014524;28;20175;-57
2022/04/20 04:16:39;;;;;;;6.40;5.70;;;3.30;99.90;;;;;;5014858;28;20199;-57
2022/04/20 04:19:06;;;;;;;5.97;5.37;;;3.30;99.90;;;;;;5014684;28;20201;-55
2022/04/20 04:21:33;;;;;;;6.10;5.50;;;3.30;99.90;;;;;;5015008;28;20446;-55
2022/04/20 04:23:59;;;;;;;8.30;6.97;;;3.20;99.90;;;;;;5014325;28;20818;-57
2022/04/20 04:26:25;;;;;;;7.83;6.47;;;3.20;99.90;;;;;;5014658;28;20466;-54
2022/04/20 04:28:51;;;;;;;7.73;6.67;;;3.20;99.90;;;;;;5014495;28;20172;-57
2022/04/20 04:31:17;;;;;;;6.70;5.97;;;3.20;99.90;;;;;;5014737;28;20403;-57
2022/04/20 04:33:42;;;;;;;7.43;5.73;;;3.10;99.90;;;;;;5014181;28;20173;-58
2022/04/20 04:36:08;;;;;;;6.10;5.50;;;3.10;99.90;;;;;;5014241;28;20751;-57
2022/04/20 04:38:33;;;;;;;6.13;5.53;;;3.10;99.90;;;;;;5014616;28;20544;-56
2022/04/20 04:40:59;;;;;;;6.40;5.60;;;;;;;;;;5014407;28;20164;-59
2022/04/20 04:43:25;;;;;;;6.10;5.33;;;3.30;99.90;;;;;;5014126;28;20168;-59
2022/04/20 04:48:41;;;;;;;6.00;5.40;;;3.30;99.90;;;;;;5014786;28;20219;-55
2022/04/20 04:51:09;;;;;;;6.33;5.47;;;3.30;99.90;;;;;;5014291;28;20400;-53
2022/04/20 04:53:34;;;;;;;6.20;5.40;;;3.40;99.90;;;;;;5013978;28;20411;-54
2022/04/20 04:56:00;;;;;;;6.70;5.93;;;3.40;99.90;;;;;;5013805;28;20200;-52
2022/04/20 04:58:26;;;;;;;6.90;5.90;;;3.40;99.90;;;;;;5013083;28;20168;-52
2022/04/20 05:00:51;;;;;;;8.23;5.90;;;3.40;99.90;;;;;;5014016;28;20168;-56
2022/04/20 05:03:17;;;;;;;6.47;5.87;;;3.50;99.90;;;;;;5013552;28;20234;-49
2022/04/20 05:05:43;;;;;;;7.63;6.00;;;3.50;99.90;;;;;;5014059;28;20219;-49
2022/04/20 05:08:09;;;;;;;6.50;5.73;;;3.50;99.90;;;;;;5013749;28;20271;-56
2022/04/20 05:10:35;;;;;;;7.70;6.70;;;3.60;99.90;;;;;;5013918;28;20251;-52
2022/04/20 05:13:01;;;;;;;7.13;6.33;;;3.60;99.90;;;;;;5013320;28;20168;-52
2022/04/20 05:15:27;;;;;;;7.03;6.33;;;3.70;99.90;;;;;;5013683;28;20455;-52
2022/04/20 05:17:53;;;;;;;6.80;6.20;;;3.80;99.90;;;;;;5013803;28;20630;-56
2022/04/20 05:20:21;;;;;;;7.33;6.23;;;3.90;99.90;;;;;;5013823;28;20215;-55
2022/04/20 05:22:48;;;;;;;7.43;6.50;;;4.00;99.90;;;;;;5013322;28;20218;-55
2022/04/20 05:25:13;;;;;;;7.20;6.47;;;4.00;99.90;;;;;;5013395;28;20540;-55
2022/04/20 05:27:39;;;;;;;7.33;6.47;;;4.10;99.90;;;;;;5013732;28;20259;-54
2022/04/20 05:30:06;;;;;;;6.27;5.67;;;4.20;99.90;;;;;;5013460;28;20218;-52
2022/04/20 05:32:32;;;;;;;9.13;7.80;;;4.30;99.90;;;;;;5013146;28;20168;-54
2022/04/20 05:34:58;;;;;;;9.23;8.27;;;4.30;99.90;;;;;;5013338;28;20192;-56
2022/04/20 05:42:53;;;;;;;8.27;6.80;;;4.60;99.90;;;;;;5013323;28;20668;-54
2022/04/20 05:45:18;;;;;;;7.20;6.50;;;4.70;99.90;;;;;;5012598;28;20185;-55
2022/04/20 05:47:45;;;;;;;7.17;6.40;;;4.80;99.90;;;;;;5013178;28;20545;-51
2022/04/20 05:50:11;;;;;;;6.70;6.00;;;4.80;99.90;;;;;;5013138;28;20223;-55
2022/04/20 05:52:36;;;;;;;6.27;5.67;;;4.90;99.90;;;;;;5012193;28;20507;-52
2022/04/20 05:55:03;;;;;;;7.07;6.37;;;4.80;99.90;;;;;;5010881;28;20211;-53
2022/04/20 05:57:29;;;;;;;7.47;6.43;;;4.80;99.90;;;;;;5000666;28;20196;-52
2022/04/20 05:59:54;;;;;;;7.07;6.37;;;4.90;99.90;;;;;;5013075;28;20620;-53
2022/04/20 06:02:20;;;;;;;8.03;7.03;;;5.00;99.90;;;;;;5011537;28;20173;-53
2022/04/20 06:04:45;;;;;;;8.63;7.73;;;5.10;99.90;;;;;;5012584;28;20211;-50
2022/04/20 06:07:12;;;;;;;9.33;8.43;;;5.10;99.90;;;;;;5007571;28;20228;-58
2022/04/20 06:09:37;;;;;;;9.30;7.77;;;5.20;99.90;;;;;;5011214;28;20192;-54
2022/04/20 06:12:03;;;;;;;7.80;7.00;;;5.30;99.90;;;;;;5015319;28;20176;-51
2022/04/20 06:14:29;;;;;;;7.50;6.57;;;5.40;99.90;;;;;;5015413;28;20172;-51
2022/04/20 06:16:54;;;;;;;8.27;7.47;;;5.50;99.90;;;;;;5012266;28;20188;-59
2022/04/20 06:19:20;;;;;;;8.93;8.03;;;5.70;99.90;;;;;;5011911;28;20191;-52
2022/04/20 06:21:45;;;;;;;9.47;8.47;;;5.80;99.90;;;;;;5012506;28;20181;-54
2022/04/20 06:24:11;;;;;;;9.60;8.27;;;5.90;99.90;;;;;;5012195;28;20263;-58
2022/04/20 06:26:36;;;;;;;7.60;6.80;;;6.00;99.90;;;;;;5012016;28;20211;-52
2022/04/20 06:29:02;;;;;;;7.53;6.83;;;6.10;99.90;;;;;;5012545;28;20165;-55
2022/04/20 06:31:27;;;;;;;7.20;6.50;;;6.10;99.90;;;;;;4991968;28;20172;-58
2022/04/20 06:33:57;;;;;;;7.50;6.70;;;6.10;99.90;;;;;;5002394;28;20256;-57
2022/04/20 06:36:26;;;;;;;26.27;19.40;;;6.10;99.90;;;;;;4992738;28;20209;-57
2022/04/20 06:38:52;;;;;;;28.43;21.57;;;6.20;99.90;;;;;;4992122;28;20179;-62
2022/04/20 06:41:18;;;;;;;48.87;35.33;;;6.40;99.90;;;;;;4990776;28;20245;-61
2022/04/20 06:43:44;;;;;;;33.20;24.80;;;6.50;99.90;;;;;;4990649;28;20172;-58
2022/04/20 06:46:10;;;;;;;13.13;10.90;;;6.60;99.90;;;;;;4992084;28;20264;-60
2022/04/20 06:48:35;;;;;;;8.87;7.90;;;6.70;99.90;;;;;;4991872;28;20181;-57
2022/04/20 06:51:02;;;;;;;7.17;6.47;;;6.80;99.90;;;;;;4992141;28;20228;-58
2022/04/20 06:58:56;;;;;;;7.20;5.70;;;6.90;99.90;;;;;;5017875;28;20175;-55
2022/04/20 07:01:21;;;;;;;7.63;6.80;;;7.00;99.90;;;;;;5016959;28;20255;-57
2022/04/20 07:03:47;;;;;;;9.60;8.13;;;7.00;99.90;;;;;;5015150;28;20188;-55
2022/04/20 07:06:13;;;;;;;8.43;7.30;;;6.90;99.90;;;;;;5017340;28;20176;-53
2022/04/20 07:08:38;;;;;;;6.90;6.27;;;8.00;99.90;;;;;;4997449;28;20600;-55
2022/04/20 07:11:05;;;;;;;8.47;6.13;;;8.60;99.90;;;;;;5014940;28;20614;-55
2022/04/20 07:13:31;;;;;;;6.80;6.10;;;7.30;99.90;;;;;;5013900;28;20228;-58
2022/04/20 07:15:57;;;;;;;6.53;5.93;;;7.30;99.90;;;;;;5014999;28;20295;-55
2022/04/20 07:18:23;;;;;;;7.00;6.30;;;7.40;99.90;;;;;;5016565;28;20630;-55
2022/04/20 07:20:49;;;;;;;6.80;6.10;;;7.60;99.90;;;;;;5016716;28;20165;-56
2022/04/20 07:23:15;;;;;;;7.33;6.57;;;7.80;99.90;;;;;;5019700;28;20664;-57
2022/04/20 07:25:41;;;;;;;7.00;6.30;;;7.90;99.90;;;;;;5020614;28;20195;-57
2022/04/20 07:28:07;;;;;;;6.50;5.90;;;8.00;99.90;;;;;;5021249;28;20572;-57
2022/04/20 07:30:34;;;;;;;7.57;6.80;;;8.00;99.90;;;;;;5020428;28;20207;-56
2022/04/20 07:33:00;;;;;;;7.80;7.00;;;8.00;99.90;;;;;;5019975;28;20197;-54
2022/04/20 07:35:27;;;;;;;7.00;6.30;;;8.10;99.90;;;;;;5019758;28;20196;-56
2022/04/20 07:37:52;;;;;;;7.83;7.03;;;8.20;99.90;;;;;;5019933;28;20194;-55
2022/04/20 07:40:18;;;;;;;7.13;6.43;;;8.50;99.90;;;;;;5021172;28;20172;-56
2022/04/20 07:42:43;;;;;;;7.50;6.20;;;8.70;99.90;;;;;;5020199;28;20220;-55
2022/04/20 07:45:09;;;;;;;8.20;7.40;;;9.30;99.90;;;;;;5004029;28;20214;-54
2022/04/20 07:47:35;;;;;;;6.50;5.90;;;8.90;99.90;;;;;;5021085;28;20238;-56
2022/04/20 07:50:18;;;;;;;6.50;5.90;;;8.80;99.90;;;;;;5021727;28;20172;-55
2022/04/20 07:52:47;;;;;;;6.17;5.57;;;8.90;99.90;;;;;;5020182;28;20235;-56
2022/04/20 07:55:24;;;;;;;6.60;6.00;;;9.00;99.90;;;;;;4987136;28;20223;-56
2022/04/20 07:57:52;;;;;;;6.07;5.47;;;9.10;99.90;;;;;;5019296;28;20630;-53
2022/04/20 08:00:18;;;;;;;6.13;5.53;;;9.10;99.90;;;;;;5020905;28;20227;-55
2022/04/20 08:02:45;;;;;;;5.73;5.20;;;9.10;99.90;;;;;;5018911;28;20192;-56
2022/04/20 08:05:14;;;;;;;5.87;5.30;;;8.90;99.90;;;;;;5019795;28;20185;-57
2022/04/20 08:07:41;;;;;;;5.80;4.97;;;8.80;99.90;;;;;;5018845;28;20177;-56
2022/04/20 08:10:08;;;;;;;5.23;4.73;;;9.00;99.90;;;;;;5017888;28;20383;-52
2022/04/20 08:12:44;;;;;;;5.23;4.73;;;9.20;99.90;;;;;;5018439;28;20188;-55
2022/04/20 08:15:10;;;;;;;4.93;4.43;;;9.20;99.90;;;;;;5018561;28;20199;-55
2022/04/20 08:17:37;;;;;;;4.73;4.23;;;9.20;98.30;;;;;;5018891;28;20177;-57
2022/04/20 08:20:07;;;;;;;4.23;3.77;;;9.20;98.30;;;;;;5018940;28;20160;-56
2022/04/20 08:22:33;;;;;;;3.60;3.10;;;9.40;98.50;;;;;;5018245;28;20202;-57
2022/04/20 08:25:02;;;;;;;3.67;3.30;;;9.50;96.30;;;;;;5018258;28;20209;-56
2022/04/20 08:27:28;;;;;;;3.40;3.10;;;9.70;95.70;;;;;;5019866;28;20168;-56
2022/04/20 08:29:53;;;;;;;4.00;3.70;;;9.90;95.20;;;;;;5018615;28;20179;-57
2022/04/20 08:32:19;;;;;;;4.10;3.70;;;10.00;94.30;;;;;;5018175;28;20197;-51
2022/04/20 08:34:47;;;;;;;3.50;3.20;;;10.20;94.50;;;;;;5018095;28;20529;-54
2022/04/20 08:37:13;;;;;;;4.63;4.00;;;10.20;92.00;;;;;;5017440;28;20165;-55
2022/04/20 08:39:39;;;;;;;4.27;3.87;;;10.10;92.40;;;;;;4999589;28;20180;-56
2022/04/20 08:42:06;;;;;;;3.80;3.50;;;8.90;94.00;;;;;;5017631;28;20503;-58
2022/04/20 08:44:34;;;;;;;6.20;4.23;;;10.00;93.90;;;;;;5016444;28;20179;-54
2022/04/20 08:47:01;;;;;;;4.20;3.80;;;10.40;95.30;;;;;;5017748;28;20179;-53
2022/04/20 08:49:27;;;;;;;4.83;3.90;;;10.50;93.50;;;;;;5016567;28;20518;-52
2022/04/20 08:54:38;;;;;;;4.40;4.00;;;10.60;92.80;;;;;;5016570;28;20186;-52
2022/04/20 08:57:16;;;;;;;4.20;3.80;;;10.70;93.10;;;;;;5017443;28;20173;-53
2022/04/20 08:59:49;;;;;;;4.27;3.87;;;10.70;92.70;;;;;;5018130;28;20172;-52
2022/04/20 09:02:16;;;;;;;5.47;4.20;;;10.90;94.00;;;;;;5016549;28;20204;-52
2022/04/20 09:04:42;;;;;;;4.40;4.00;;;11.10;93.50;;;;;;5016048;28;20520;-52
2022/04/20 09:07:09;;;;;;;4.83;4.33;;;10.70;92.40;;;;;;4998998;28;20171;-52
2022/04/20 09:09:35;;;;;;;4.23;3.83;;;10.70;93.70;;;;;;5017189;28;20165;-53
2022/04/20 09:12:00;;;;;;;4.33;3.93;;;10.90;92.50;;;;;;5017266;28;20491;-52
2022/04/20 09:14:29;;;;;;;5.73;4.07;;;11.10;93.50;;;;;;5016343;28;20179;-54
2022/04/20 09:16:55;;;;;;;4.73;4.33;;;11.50;93.00;;;;;;5016804;28;20207;-53
2022/04/20 09:19:28;;;;;;;4.70;4.07;;;11.70;94.50;;;;;;5016365;28;20284;-52
2022/04/20 09:21:55;;;;;;;4.23;3.70;;;11.90;92.20;;;;;;5015105;28;20168;-56
2022/04/20 09:24:21;;;;;;;4.50;4.10;;;12.00;92.50;;;;;;5016118;28;20171;-53
2022/04/20 09:26:50;;;;;;;4.57;4.17;;;12.20;93.30;;;;;;5016408;28;20173;-56
2022/04/20 09:29:16;;;;;;;4.97;4.47;;;12.50;93.00;;;;;;5015864;28;20191;-54
2022/04/20 09:31:48;;;;;;;4.50;4.10;;;12.40;91.30;;;;;;5016248;28;20177;-55
2022/04/20 09:34:29;;;;;;;4.30;3.90;;;12.30;91.30;;;;;;5015851;28;20191;-54
2022/04/20 09:36:57;;;;;;;4.77;4.27;;;12.40;93.70;;;;;;5016031;28;20192;-54
2022/04/20 09:39:25;;;;;;;4.93;4.10;;;12.70;92.90;;;;;;5015570;28;20199;-54
2022/04/20 09:42:05;;;;;;;4.10;3.70;;;12.80;91.10;;;;;;5015403;28;20243;-55
2022/04/20 09:44:31;;;;;;;4.70;4.30;;;12.70;91.10;;;;;;5013730;28;20656;-54
2022/04/20 09:49:59;;;;;;;4.40;4.00;;;12.40;91.30;;;;;;5015927;28;20219;-54
2022/04/20 09:52:48;;;;;;;4.47;4.07;;;12.50;92.10;;;;;;5014052;28;20275;-55
2022/04/20 09:55:25;;;;;;;3.90;3.60;;;12.00;90.00;;;;;;5015611;28;20196;-57
2022/04/20 09:57:50;;;;;;;4.90;4.40;;;11.90;91.20;;;;;;5016021;28;20196;-54
2022/04/20 10:00:16;;;;;;;4.40;4.00;;;12.20;91.40;;;;;;5015337;28;20541;-56
2022/04/20 10:02:46;;;;;;;4.50;4.10;;;12.30;89.10;;;;;;5015849;28;20212;-56
2022/04/20 10:05:13;;;;;;;4.40;4.00;;;12.40;90.90;;;;;;5015238;28;20203;-53
2022/04/20 10:07:38;;;;;;;4.20;3.80;;;12.50;90.20;;;;;;5014201;28;20172;-56
2022/04/20 10:10:04;;;;;;;4.33;3.93;;;12.70;90.70;;;;;;5014907;28;20178;-54
2022/04/20 10:12:31;;;;;;;4.30;3.90;;;12.80;91.00;;;;;;5014508;28;20203;-55
2022/04/20 10:17:48;;;;;;;3.70;3.40;;;13.30;89.90;;;;;;5016786;28;20184;-53
2022/04/20 10:20:14;;;;;;;4.17;3.87;;;13.70;88.50;;;;;;5014989;28;20507;-56
2022/04/20 10:22:42;;;;;;;4.50;4.10;;;13.80;86.00;;;;;;5014245;28;20280;-57
2022/04/20 10:25:09;;;;;;;4.23;3.83;;;14.90;88.50;;;;;;5014927;28;20260;-54
2022/04/20 10:27:58;;;;;;;4.70;4.20;;;13.50;87.80;;;;;;5014643;28;20176;-56
2022/04/20 10:30:59;;;;;;;3.60;3.30;;;13.60;86.20;;;;;;5015915;28;20178;-54
2022/04/20 10:33:25;;;;;;;3.97;3.67;;;13.60;85.60;;;;;;5014758;28;20205;-52
2022/04/20 10:35:56;;;;;;;4.57;4.17;;;13.60;87.20;;;;;;5015763;28;20201;-54
2022/04/20 10:38:21;;;;;;;4.27;3.87;;;14.00;90.00;;;;;;5015747;28;20563;-52
2022/04/20 10:40:59;;;;;;;4.07;3.77;;;14.40;90.30;;;;;;5015349;28;20175;-57
2022/04/20 10:43:27;;;;;;;4.10;3.70;;;14.60;83.00;;;;;;5014366;28;20188;-56
2022/04/20 10:46:23;;;;;;;4.93;3.77;;;14.50;84.20;;;;;;5015021;28;20176;-53
2022/04/20 10:49:02;;;;;;;3.90;3.60;;;14.60;85.80;;;;;;5013240;28;20197;-54
2022/04/20 10:51:32;;;;;;;3.83;3.53;;;14.40;80.50;;;;;;5014579;28;20172;-57
2022/04/20 10:54:23;;;;;;;3.87;3.57;;;14.40;84.30;;;;;;5013668;28;20207;-55
2022/04/20 10:57:07;;;;;;;4.40;4.00;;;14.50;84.00;;;;;;5012931;28;20310;-56
2022/04/20 10:59:33;;;;;;;3.90;3.53;;;14.40;81.50;;;;;;5014685;28;20183;-57
2022/04/20 11:01:58;;;;;;;3.67;3.37;;;14.50;85.30;;;;;;5015046;28;20173;-54
2022/04/20 11:04:40;;;;;;;3.90;3.60;;;14.80;87.40;;;;;;5014160;28;20172;-54
2022/04/20 11:07:08;;;;;;;3.83;3.47;;;15.30;85.20;;;;;;5014724;28;20565;-54
2022/04/20 11:09:46;;;;;;;4.10;3.67;;;15.50;80.30;;;;;;5014687;28;20223;-53
2022/04/20 11:21:09;;;;;;;4.33;3.60;;;15.50;76.50;;;;;;5014386;28;20545;-53
2022/04/20 11:23:55;;;;;;;4.00;3.70;;;14.20;74.60;;;;;;5013338;28;20187;-55
2022/04/20 11:26:27;;;;;;;3.70;3.40;;;16.10;73.90;;;;;;5014421;28;20192;-55
2022/04/20 11:29:17;;;;;;;3.37;3.10;;;16.00;72.60;;;;;;4998196;28;20175;-53
2022/04/20 11:31:51;;;;;;;3.43;3.17;;;16.20;74.00;;;;;;5014449;28;20178;-56
2022/04/20 11:34:20;;;;;;;3.70;3.40;;;16.40;74.00;;;;;;5013633;28;20188;-56
2022/04/20 11:36:51;;;;;;;3.50;3.20;;;16.60;71.10;;;;;;5014567;28;20165;-53
2022/04/20 11:39:19;;;;;;;3.13;2.93;;;16.80;78.20;;;;;;5014723;28;20220;-57
2022/04/20 11:41:47;;;;;;;3.33;3.03;;;17.00;71.30;;;;;;5014481;28;20175;-57
2022/04/20 11:44:21;;;;;;;3.20;3.00;;;17.30;70.60;;;;;;5013930;28;20180;-57
2022/04/20 11:46:51;;;;;;;3.30;3.00;;;17.80;70.90;;;;;;5014278;28;20206;-53
2022/04/20 11:49:18;;;;;;;3.20;3.00;;;17.90;69.40;;;;;;5014168;28;20165;-56
2022/04/20 11:51:54;;;;;;;3.97;3.53;;;18.00;68.40;;;;;;5013045;28;20184;-57
2022/04/20 11:54:20;;;;;;;3.67;3.37;;;18.20;65.80;;;;;;5012524;28;20222;-57
2022/04/20 11:56:46;;;;;;;3.57;3.27;;;;;;;;;;5013251;28;20220;-56
2022/04/20 11:59:12;;;;;;;3.40;3.20;;;;;;;;;;5013310;28;20169;-57
2022/04/20 12:01:39;;;;;;;3.40;3.10;;;18.80;89.30;;;;;;5013649;28;20291;-54
2022/04/20 12:04:31;;;;;;;3.27;2.97;;;;;;;;;;5012606;28;20220;-55
2022/04/20 12:06:59;;;;;;;3.33;3.13;;;18.90;84.00;;;;;;5010378;28;20216;-54
2022/04/20 12:09:36;;;;;;;3.30;3.00;;;18.80;60.20;;;;;;5016824;28;20630;-52
2022/04/20 12:12:05;;;;;;;3.37;3.00;;;18.80;63.30;;;;;;5013018;28;20184;-57
2022/04/20 12:14:32;;;;;;;4.33;2.77;;;19.20;62.90;;;;;;5011148;28;20224;-55
2022/04/20 12:17:01;;;;;;;2.95;2.75;;;19.70;60.40;;;;;;5014638;28;20178;-56
2022/04/20 12:19:30;;;;;;;2.90;2.70;;;20.50;59.80;;;;;;5010576;28;20180;-56
2022/04/20 12:22:06;;;;;;;2.80;2.60;;;21.10;56.60;;;;;;5016226;28;20260;-57
2022/04/20 12:24:32;;;;;;;3.00;2.80;;;22.30;54.70;;;;;;5016230;28;20168;-58
2022/04/20 12:26:59;;;;;;;2.65;2.45;;;22.60;53.30;;;;;;5016754;28;20196;-57
2022/04/20 12:29:27;;;;;;;2.40;2.20;;;23.00;50.20;;;;;;5016809;28;20156;-58
2022/04/20 12:31:57;;;;;;;2.63;2.42;;;23.60;71.80;;;;;;5016644;28;20165;-56
2022/04/20 12:34:25;;;;;;;2.67;2.47;;;24.10;48.60;;;;;;5015611;28;20157;-56
2022/04/20 12:36:59;;;;;;;2.58;2.40;;;24.10;49.10;;;;;;5016690;28;20169;-57
2022/04/20 12:39:36;;;;;;;3.35;2.70;;;24.70;46.00;;;;;;5016092;28;20168;-56
2022/04/20 12:42:14;;;;;;;2.92;2.72;;;25.00;44.30;;;;;;5016180;28;20193;-56
2022/04/20 12:44:52;;;;;;;2.72;2.53;;;25.00;45.40;;;;;;5016501;28;20207;-53
2022/04/20 12:47:21;;;;;;;2.75;2.55;;;;;;;;;;5017082;28;20715;-56
2022/04/20 12:49:51;;;;;;;2.20;2.10;;;;;;;;;;5016851;28;20221;-54
2022/04/20 12:52:25;;;;;;;2.60;2.50;;;24.30;60.90;;;;;;5016655;28;20185;-55
2022/04/20 12:55:09;;;;;;;3.00;2.70;;;23.30;61.60;;;;;;5017197;28;20211;-55
2022/04/20 13:03:13;;;;;;;2.67;2.47;;;23.80;68.10;;;;;;5016419;28;20223;-52
2022/04/20 13:05:42;;;;;;;2.40;2.20;;;22.50;54.70;;;;;;5016793;28;20254;-54
2022/04/20 13:08:10;;;;;;;2.15;2.05;;;23.40;63.10;;;;;;5014493;28;20771;-54
2022/04/20 13:10:49;;;;;;;2.28;2.15;;;24.00;46.10;;;;;;5014156;28;20176;-59
2022/04/20 13:13:15;;;;;;;2.55;2.35;;;24.20;47.20;;;;;;5013886;28;20181;-54
2022/04/20 13:15:41;;;;;;;2.40;2.20;;;24.50;65.80;;;;;;5014166;28;20658;-55
2022/04/20 13:18:09;;;;;;;2.38;2.28;;;25.40;69.20;;;;;;5013737;28;20507;-56
2022/04/20 13:20:35;;;;;;;2.25;2.05;;;25.40;50.60;;;;;;5014257;28;20267;-58
2022/04/20 13:23:01;;;;;;;2.70;2.50;;;24.10;56.20;;;;;;5013679;28;20627;-57
2022/04/20 13:28:11;;;;;;;2.30;2.20;;;23.80;46.30;;;;;;5014703;28;20199;-55
2022/04/20 13:30:39;;;;;;;4.38;2.83;;;23.90;56.30;;;;;;5014722;28;20192;-53
2022/04/20 13:33:10;;;;;;;2.40;2.20;;;24.30;64.10;;;;;;5005838;28;20220;-55
2022/04/20 13:35:36;;;;;;;2.63;2.42;;;24.20;68.70;;;;;;4996351;28;20180;-56
2022/04/20 13:38:03;;;;;;;2.85;2.17;;;24.00;39.50;;;;;;5007283;28;20638;-58
2022/04/20 13:40:30;;;;;;;2.38;2.28;;;;;;;;;;5003023;28;20200;-57